Aviation Digital Data Service (ADDS)

Output produced by TAFs form (0727 UTC 23 August 2014)
found at http://aviationweather.gov/adds/tafs/
 
KCNM 230521Z 2306/2406 17007KT P6SM SCT080 BKN150 
     FM231800 19010G18KT P6SM SCT080 SCT250